Keene, New York
Current Conditions -  °F | °C
As of 12:51 PM on Saturday 20 Dec 2014 (Local Time) from KSLK Reporting Station
Clear Clear  
Wind Chill: 21°   Ceiling: Unl
Heat Index: 21°   Visibility: 10mi
Dew Point: 17°   Wind: 3mph
Humidity: 85%   Direction: 210°SSW
Pressure: 30.17"   Gusts: NA
Location:  44.26°N, 73.79°W
Report Text: KSLK 201751Z AUTO 21003KT 10SM CLR M06/M08 A3017 RMK AO2 SLP248 T10611083 11061 21156 56010 $
Loading
Personal Weather Stations






























Interactive Weather Map New forecast layout! Learn more

10-Day Weather Forecast

Advertisements
Track Severe Weather on mobile